sensor_id;sensor_type;location;lat;lon;timestamp;temperature;humidity
5792;DHT22;2922;53.482;10.006;2023-09-18T05:46:36;16.50;99.90
5792;DHT22;2922;53.482;10.006;2023-09-18T05:49:02;16.50;99.90
5792;DHT22;2922;53.482;10.006;2023-09-18T05:51:27;16.60;99.90
5792;DHT22;2922;53.482;10.006;2023-09-18T05:53:53;16.70;99.90
5792;DHT22;2922;53.482;10.006;2023-09-18T05:56:19;16.70;99.90
5792;DHT22;2922;53.482;10.006;2023-09-18T05:58:45;16.70;99.90
5792;DHT22;2922;53.482;10.006;2023-09-18T06:01:10;16.80;99.90
5792;DHT22;2922;53.482;10.006;2023-09-18T06:03:36;16.90;99.90
5792;DHT22;2922;53.482;10.006;2023-09-18T06:06:02;17.00;99.90
5792;DHT22;2922;53.482;10.006;2023-09-18T06:08:29;17.00;99.90
5792;DHT22;2922;53.482;10.006;2023-09-18T06:10:55;17.10;99.90
5792;DHT22;2922;53.482;10.006;2023-09-18T06:13:21;17.20;99.90
5792;DHT22;2922;53.482;10.006;2023-09-18T06:15:47;17.30;99.90
5792;DHT22;2922;53.482;10.006;2023-09-18T06:18:13;17.40;99.90
5792;DHT22;2922;53.482;10.006;2023-09-18T06:20:39;17.50;99.90
5792;DHT22;2922;53.482;10.006;2023-09-18T06:23:05;17.50;99.90
5792;DHT22;2922;53.482;10.006;2023-09-18T06:25:30;17.60;99.90
5792;DHT22;2922;53.482;10.006;2023-09-18T06:27:57;17.60;99.90
5792;DHT22;2922;53.482;10.006;2023-09-18T06:30:22;17.60;99.90
5792;DHT22;2922;53.482;10.006;2023-09-18T06:32:48;17.80;99.90
5792;DHT22;2922;53.482;10.006;2023-09-18T06:35:14;17.70;99.90
5792;DHT22;2922;53.482;10.006;2023-09-18T06:37:39;17.80;99.90
5792;DHT22;2922;53.482;10.006;2023-09-18T06:40:05;17.90;99.90
5792;DHT22;2922;53.482;10.006;2023-09-18T06:42:32;17.80;99.90
5792;DHT22;2922;53.482;10.006;2023-09-18T06:44:58;17.90;99.90
5792;DHT22;2922;53.482;10.006;2023-09-18T06:47:24;17.90;99.90
5792;DHT22;2922;53.482;10.006;2023-09-18T06:49:50;17.90;99.90
5792;DHT22;2922;53.482;10.006;2023-09-18T06:52:17;18.10;99.90
5792;DHT22;2922;53.482;10.006;2023-09-18T06:54:42;18.00;99.90
5792;DHT22;2922;53.482;10.006;2023-09-18T06:57:09;18.10;99.90
5792;DHT22;2922;53.482;10.006;2023-09-18T06:59:35;18.10;99.90
5792;DHT22;2922;53.482;10.006;2023-09-18T07:02:01;18.20;99.90
5792;DHT22;2922;53.482;10.006;2023-09-18T07:04:27;18.20;99.90
5792;DHT22;2922;53.482;10.006;2023-09-18T07:06:53;18.30;99.90
5792;DHT22;2922;53.482;10.006;2023-09-18T07:09:19;18.40;99.90
5792;DHT22;2922;53.482;10.006;2023-09-18T07:11:48;18.40;99.90
5792;DHT22;2922;53.482;10.006;2023-09-18T07:14:14;18.50;99.90
5792;DHT22;2922;53.482;10.006;2023-09-18T07:16:39;18.50;99.90
5792;DHT22;2922;53.482;10.006;2023-09-18T07:19:05;18.60;99.90
5792;DHT22;2922;53.482;10.006;2023-09-18T07:21:31;18.80;99.90
5792;DHT22;2922;53.482;10.006;2023-09-18T07:23:56;19.00;99.90
5792;DHT22;2922;53.482;10.006;2023-09-18T07:26:22;19.10;99.90
5792;DHT22;2922;53.482;10.006;2023-09-18T07:28:48;19.40;99.90
5792;DHT22;2922;53.482;10.006;2023-09-18T07:31:13;19.60;99.90
5792;DHT22;2922;53.482;10.006;2023-09-18T07:33:40;19.70;99.90
5792;DHT22;2922;53.482;10.006;2023-09-18T07:36:06;19.70;99.90
5792;DHT22;2922;53.482;10.006;2023-09-18T07:38:32;19.70;99.90
5792;DHT22;2922;53.482;10.006;2023-09-18T07:40:58;19.70;99.90
5792;DHT22;2922;53.482;10.006;2023-09-18T07:43:24;19.80;99.90
5792;DHT22;2922;53.482;10.006;2023-09-18T07:48:17;20.10;99.90
5792;DHT22;2922;53.482;10.006;2023-09-18T07:50:45;20.10;99.90
5792;DHT22;2922;53.482;10.006;2023-09-18T07:53:11;20.10;99.90
5792;DHT22;2922;53.482;10.006;2023-09-18T07:55:37;20.10;99.90
5792;DHT22;2922;53.482;10.006;2023-09-18T07:58:03;20.10;99.90
5792;DHT22;2922;53.482;10.006;2023-09-18T08:00:30;20.10;99.90
5792;DHT22;2922;53.482;10.006;2023-09-18T08:02:55;20.20;99.90
5792;DHT22;2922;53.482;10.006;2023-09-18T08:05:26;20.20;99.90
5792;DHT22;2922;53.482;10.006;2023-09-18T08:07:57;20.20;99.90
5792;DHT22;2922;53.482;10.006;2023-09-18T08:10:25;20.30;99.90
5792;DHT22;2922;53.482;10.006;2023-09-18T08:12:50;20.40;99.90
5792;DHT22;2922;53.482;10.006;2023-09-18T08:15:21;20.40;99.90
5792;DHT22;2922;53.482;10.006;2023-09-18T08:17:47;20.40;99.90
5792;DHT22;2922;53.482;10.006;2023-09-18T08:20:15;20.30;99.90
5792;DHT22;2922;53.482;10.006;2023-09-18T08:22:42;20.30;99.90
5792;DHT22;2922;53.482;10.006;2023-09-18T08:25:07;20.30;99.90
5792;DHT22;2922;53.482;10.006;2023-09-18T08:27:37;20.30;99.90
5792;DHT22;2922;53.482;10.006;2023-09-18T08:30:06;20.30;99.90
5792;DHT22;2922;53.482;10.006;2023-09-18T08:32:31;20.30;99.90
5792;DHT22;2922;53.482;10.006;2023-09-18T08:34:59;20.40;99.90
5792;DHT22;2922;53.482;10.006;2023-09-18T08:37:26;20.40;99.90
5792;DHT22;2922;53.482;10.006;2023-09-18T08:39:52;20.40;99.90
5792;DHT22;2922;53.482;10.006;2023-09-18T08:42:18;20.50;99.90
5792;DHT22;2922;53.482;10.006;2023-09-18T08:44:48;20.40;99.90
5792;DHT22;2922;53.482;10.006;2023-09-18T08:47:17;20.50;99.90
5792;DHT22;2922;53.482;10.006;2023-09-18T08:49:45;20.50;99.90
5792;DHT22;2922;53.482;10.006;2023-09-18T08:52:12;20.60;99.90
5792;DHT22;2922;53.482;10.006;2023-09-18T08:54:38;20.50;99.90
5792;DHT22;2922;53.482;10.006;2023-09-18T08:57:04;20.70;99.90
5792;DHT22;2922;53.482;10.006;2023-09-18T08:59:33;20.60;99.90
5792;DHT22;2922;53.482;10.006;2023-09-18T09:02:00;20.70;99.90
5792;DHT22;2922;53.482;10.006;2023-09-18T09:04:25;20.70;99.90
5792;DHT22;2922;53.482;10.006;2023-09-18T09:06:51;20.70;99.90
5792;DHT22;2922;53.482;10.006;2023-09-18T09:09:16;20.70;99.90
5792;DHT22;2922;53.482;10.006;2023-09-18T09:11:51;20.80;99.90
5792;DHT22;2922;53.482;10.006;2023-09-18T09:14:16;20.90;99.90
5792;DHT22;2922;53.482;10.006;2023-09-18T09:16:53;20.90;99.90
5792;DHT22;2922;53.482;10.006;2023-09-18T09:19:28;21.00;99.90
5792;DHT22;2922;53.482;10.006;2023-09-18T09:21:55;21.10;99.90
5792;DHT22;2922;53.482;10.006;2023-09-18T09:24:41;21.30;99.90
5792;DHT22;2922;53.482;10.006;2023-09-18T09:27:07;21.50;99.90
5792;DHT22;2922;53.482;10.006;2023-09-18T09:29:33;21.70;99.90
5792;DHT22;2922;53.482;10.006;2023-09-18T09:32:27;21.80;99.90
5792;DHT22;2922;53.482;10.006;2023-09-18T09:34:57;21.90;99.90
5792;DHT22;2922;53.482;10.006;2023-09-18T09:37:31;22.00;99.90
5792;DHT22;2922;53.482;10.006;2023-09-18T09:40:02;22.10;99.90
5792;DHT22;2922;53.482;10.006;2023-09-18T09:42:41;22.10;99.90
5792;DHT22;2922;53.482;10.006;2023-09-18T09:45:15;22.20;99.90
5792;DHT22;2922;53.482;10.006;2023-09-18T09:47:41;22.30;99.90
5792;DHT22;2922;53.482;10.006;2023-09-18T09:50:13;22.50;99.90
5792;DHT22;2922;53.482;10.006;2023-09-18T09:52:48;22.50;99.90
5792;DHT22;2922;53.482;10.006;2023-09-18T09:55:23;22.40;99.90
5792;DHT22;2922;53.482;10.006;2023-09-18T09:58:03;22.50;99.90
5792;DHT22;2922;53.482;10.006;2023-09-18T10:03:04;22.70;99.90
5792;DHT22;2922;53.482;10.006;2023-09-18T10:05:35;22.80;99.90
5792;DHT22;2922;53.482;10.006;2023-09-18T10:08:10;22.80;99.90
5792;DHT22;2922;53.482;10.006;2023-09-18T10:10:39;22.80;99.90
5792;DHT22;2922;53.482;10.006;2023-09-18T10:13:09;22.80;99.90
5792;DHT22;2922;53.482;10.006;2023-09-18T10:15:38;22.80;99.90
5792;DHT22;2922;53.482;10.006;2023-09-18T10:18:07;22.70;99.90
5792;DHT22;2922;53.482;10.006;2023-09-18T10:20:39;22.80;99.90
5792;DHT22;2922;53.482;10.006;2023-09-18T10:23:18;22.80;99.90
5792;DHT22;2922;53.482;10.006;2023-09-18T10:25:50;22.80;99.90
5792;DHT22;2922;53.482;10.006;2023-09-18T10:28:20;23.00;99.90
5792;DHT22;2922;53.482;10.006;2023-09-18T10:30:49;23.20;99.90
5792;DHT22;2922;53.482;10.006;2023-09-18T10:33:16;23.40;99.90
5792;DHT22;2922;53.482;10.006;2023-09-18T10:35:43;23.50;99.90
5792;DHT22;2922;53.482;10.006;2023-09-18T10:38:09;23.50;99.90
5792;DHT22;2922;53.482;10.006;2023-09-18T10:40:36;23.50;99.90
5792;DHT22;2922;53.482;10.006;2023-09-18T10:43:04;23.50;99.90
5792;DHT22;2922;53.482;10.006;2023-09-18T10:45:35;23.50;99.90
5792;DHT22;2922;53.482;10.006;2023-09-18T10:48:02;23.50;99.90
5792;DHT22;2922;53.482;10.006;2023-09-18T10:50:29;23.60;99.90
5792;DHT22;2922;53.482;10.006;2023-09-18T10:52:57;24.00;99.90
5792;DHT22;2922;53.482;10.006;2023-09-18T10:55:23;24.30;99.90
5792;DHT22;2922;53.482;10.006;2023-09-18T10:57:54;24.30;99.90
5792;DHT22;2922;53.482;10.006;2023-09-18T11:00:29;24.30;99.90
5792;DHT22;2922;53.482;10.006;2023-09-18T11:03:15;24.30;99.90
5792;DHT22;2922;53.482;10.006;2023-09-18T11:05:44;24.50;99.90
5792;DHT22;2922;53.482;10.006;2023-09-18T11:11:00;24.90;99.90
5792;DHT22;2922;53.482;10.006;2023-09-18T11:13:48;24.80;99.90
5792;DHT22;2922;53.482;10.006;2023-09-18T11:21:30;24.20;99.90
5792;DHT22;2922;53.482;10.006;2023-09-18T11:24:11;24.20;99.90
5792;DHT22;2922;53.482;10.006;2023-09-18T11:26:42;24.20;99.90
5792;DHT22;2922;53.482;10.006;2023-09-18T11:29:10;24.20;99.90
5792;DHT22;2922;53.482;10.006;2023-09-18T11:34:15;24.20;99.90
5792;DHT22;2922;53.482;10.006;2023-09-18T11:36:41;24.20;99.90
5792;DHT22;2922;53.482;10.006;2023-09-18T11:39:07;24.20;99.90
5792;DHT22;2922;53.482;10.006;2023-09-18T11:41:35;24.30;99.90
5792;DHT22;2922;53.482;10.006;2023-09-18T11:46:49;24.30;99.90
5792;DHT22;2922;53.482;10.006;2023-09-18T11:49:22;24.30;99.90
5792;DHT22;2922;53.482;10.006;2023-09-18T11:51:48;24.30;99.90
5792;DHT22;2922;53.482;10.006;2023-09-18T11:54:15;24.30;99.90
5792;DHT22;2922;53.482;10.006;2023-09-18T11:56:42;24.50;99.90
5792;DHT22;2922;53.482;10.006;2023-09-18T18:00:36;21.60;99.90
5792;DHT22;2922;53.482;10.006;2023-09-18T18:03:02;21.50;99.90
5792;DHT22;2922;53.482;10.006;2023-09-18T18:05:28;21.50;99.90
5792;DHT22;2922;53.482;10.006;2023-09-18T18:07:53;21.40;99.90
5792;DHT22;2922;53.482;10.006;2023-09-18T18:10:19;21.40;99.90
5792;DHT22;2922;53.482;10.006;2023-09-18T18:12:45;21.30;99.90
5792;DHT22;2922;53.482;10.006;2023-09-18T18:15:10;21.30;99.90
5792;DHT22;2922;53.482;10.006;2023-09-18T18:17:38;21.30;99.90
5792;DHT22;2922;53.482;10.006;2023-09-18T18:20:04;21.30;99.90
5792;DHT22;2922;53.482;10.006;2023-09-18T18:22:31;21.20;99.90
5792;DHT22;2922;53.482;10.006;2023-09-18T18:24:57;21.20;99.90
5792;DHT22;2922;53.482;10.006;2023-09-18T18:27:23;21.20;99.90
5792;DHT22;2922;53.482;10.006;2023-09-18T18:29:48;21.10;99.90
5792;DHT22;2922;53.482;10.006;2023-09-18T18:32:14;21.10;99.90
5792;DHT22;2922;53.482;10.006;2023-09-18T18:34:40;21.00;99.90
5792;DHT22;2922;53.482;10.006;2023-09-18T18:37:06;21.00;99.90
5792;DHT22;2922;53.482;10.006;2023-09-18T18:39:32;21.00;99.90
5792;DHT22;2922;53.482;10.006;2023-09-18T18:41:59;20.90;99.90
5792;DHT22;2922;53.482;10.006;2023-09-18T18:44:24;20.90;99.90
5792;DHT22;2922;53.482;10.006;2023-09-18T18:46:50;20.90;99.90
5792;DHT22;2922;53.482;10.006;2023-09-18T18:49:16;20.90;99.90
5792;DHT22;2922;53.482;10.006;2023-09-18T18:51:41;20.80;99.90
5792;DHT22;2922;53.482;10.006;2023-09-18T18:54:07;20.80;99.90
5792;DHT22;2922;53.482;10.006;2023-09-18T18:56:33;20.80;99.90
5792;DHT22;2922;53.482;10.006;2023-09-18T18:58:59;20.80;99.90
5792;DHT22;2922;53.482;10.006;2023-09-18T19:01:24;20.70;99.90
5792;DHT22;2922;53.482;10.006;2023-09-18T19:03:52;20.70;99.90
5792;DHT22;2922;53.482;10.006;2023-09-18T19:06:18;20.70;99.90
5792;DHT22;2922;53.482;10.006;2023-09-18T19:08:44;20.60;99.90
5792;DHT22;2922;53.482;10.006;2023-09-18T19:11:10;20.60;99.90
5792;DHT22;2922;53.482;10.006;2023-09-18T19:13:36;20.60;99.90
5792;DHT22;2922;53.482;10.006;2023-09-18T19:16:06;20.60;99.90
5792;DHT22;2922;53.482;10.006;2023-09-18T19:18:32;20.50;99.90
5792;DHT22;2922;53.482;10.006;2023-09-18T19:20:58;20.50;99.90
5792;DHT22;2922;53.482;10.006;2023-09-18T19:23:24;20.40;99.90
5792;DHT22;2922;53.482;10.006;2023-09-18T19:25:52;20.40;99.90
5792;DHT22;2922;53.482;10.006;2023-09-18T19:28:19;20.40;99.90
5792;DHT22;2922;53.482;10.006;2023-09-18T19:30:45;20.30;99.90
5792;DHT22;2922;53.482;10.006;2023-09-18T19:33:18;20.30;99.90
5792;DHT22;2922;53.482;10.006;2023-09-18T19:35:45;20.20;99.90
5792;DHT22;2922;53.482;10.006;2023-09-18T19:38:11;20.20;99.90
5792;DHT22;2922;53.482;10.006;2023-09-18T19:40:42;20.20;99.90
5792;DHT22;2922;53.482;10.006;2023-09-18T19:43:09;20.20;99.90
5792;DHT22;2922;53.482;10.006;2023-09-18T19:45:35;20.10;99.90
5792;DHT22;2922;53.482;10.006;2023-09-18T19:48:01;20.10;99.90
5792;DHT22;2922;53.482;10.006;2023-09-18T19:50:28;20.10;99.90
5792;DHT22;2922;53.482;10.006;2023-09-18T19:52:56;20.00;99.90
5792;DHT22;2922;53.482;10.006;2023-09-18T19:55:22;20.00;99.90
5792;DHT22;2922;53.482;10.006;2023-09-18T19:57:49;20.00;99.90
5792;DHT22;2922;53.482;10.006;2023-09-18T20:00:15;19.90;99.90
5792;DHT22;2922;53.482;10.006;2023-09-18T20:02:41;19.90;99.90
5792;DHT22;2922;53.482;10.006;2023-09-18T20:05:08;19.90;99.90
5792;DHT22;2922;53.482;10.006;2023-09-18T20:07:35;19.90;99.90
5792;DHT22;2922;53.482;10.006;2023-09-18T20:10:00;19.80;99.90
5792;DHT22;2922;53.482;10.006;2023-09-18T20:12:27;19.80;99.90
5792;DHT22;2922;53.482;10.006;2023-09-18T20:14:53;19.80;99.90
5792;DHT22;2922;53.482;10.006;2023-09-18T20:17:19;19.80;99.90
5792;DHT22;2922;53.482;10.006;2023-09-18T20:19:49;19.80;99.90
5792;DHT22;2922;53.482;10.006;2023-09-18T20:22:16;19.80;99.90
5792;DHT22;2922;53.482;10.006;2023-09-18T20:24:42;19.70;99.90
5792;DHT22;2922;53.482;10.006;2023-09-18T20:27:08;19.40;99.90
5792;DHT22;2922;53.482;10.006;2023-09-18T20:29:37;19.30;99.90
5792;DHT22;2922;53.482;10.006;2023-09-18T20:32:04;19.10;99.90
5792;DHT22;2922;53.482;10.006;2023-09-18T20:34:30;18.90;99.90
5792;DHT22;2922;53.482;10.006;2023-09-18T20:36:58;18.90;99.90
5792;DHT22;2922;53.482;10.006;2023-09-18T20:39:23;18.80;99.90
5792;DHT22;2922;53.482;10.006;2023-09-18T20:41:51;18.80;99.90
5792;DHT22;2922;53.482;10.006;2023-09-18T20:44:17;18.80;99.90
5792;DHT22;2922;53.482;10.006;2023-09-18T20:46:43;18.70;99.90
5792;DHT22;2922;53.482;10.006;2023-09-18T20:49:08;18.60;99.90
5792;DHT22;2922;53.482;10.006;2023-09-18T20:51:34;18.60;99.90
5792;DHT22;2922;53.482;10.006;2023-09-18T20:54:00;18.60;99.90
5792;DHT22;2922;53.482;10.006;2023-09-18T20:56:26;18.50;99.90
5792;DHT22;2922;53.482;10.006;2023-09-18T20:58:56;18.40;99.90
5792;DHT22;2922;53.482;10.006;2023-09-18T21:01:26;18.30;99.90
5792;DHT22;2922;53.482;10.006;2023-09-18T21:03:52;18.30;99.90
5792;DHT22;2922;53.482;10.006;2023-09-18T21:06:20;18.20;99.90
5792;DHT22;2922;53.482;10.006;2023-09-18T21:08:47;18.20;99.90
5792;DHT22;2922;53.482;10.006;2023-09-18T21:11:13;18.20;99.90
5792;DHT22;2922;53.482;10.006;2023-09-18T21:13:38;18.10;99.90
5792;DHT22;2922;53.482;10.006;2023-09-18T21:16:09;18.10;99.90
5792;DHT22;2922;53.482;10.006;2023-09-18T21:18:34;18.00;99.90
5792;DHT22;2922;53.482;10.006;2023-09-18T21:21:00;18.00;99.90
5792;DHT22;2922;53.482;10.006;2023-09-18T21:23:26;18.00;99.90
5792;DHT22;2922;53.482;10.006;2023-09-18T21:25:53;18.00;99.90
5792;DHT22;2922;53.482;10.006;2023-09-18T21:28:20;17.90;99.90
5792;DHT22;2922;53.482;10.006;2023-09-18T21:30:46;17.90;99.90
5792;DHT22;2922;53.482;10.006;2023-09-18T21:33:11;17.90;99.90
5792;DHT22;2922;53.482;10.006;2023-09-18T21:35:38;17.90;99.90
5792;DHT22;2922;53.482;10.006;2023-09-18T21:38:05;17.80;99.90
5792;DHT22;2922;53.482;10.006;2023-09-18T21:40:31;17.70;99.90
5792;DHT22;2922;53.482;10.006;2023-09-18T21:42:57;17.70;99.90
5792;DHT22;2922;53.482;10.006;2023-09-18T21:45:23;17.60;99.90
5792;DHT22;2922;53.482;10.006;2023-09-18T21:47:49;17.50;99.90
5792;DHT22;2922;53.482;10.006;2023-09-18T21:50:16;17.60;99.90
5792;DHT22;2922;53.482;10.006;2023-09-18T21:52:42;17.50;99.90
5792;DHT22;2922;53.482;10.006;2023-09-18T21:55:08;17.50;99.90
5792;DHT22;2922;53.482;10.006;2023-09-18T21:57:33;17.40;99.90
5792;DHT22;2922;53.482;10.006;2023-09-18T21:59:59;17.40;99.90
5792;DHT22;2922;53.482;10.006;2023-09-18T22:02:26;17.40;99.90
5792;DHT22;2922;53.482;10.006;2023-09-18T22:04:52;17.40;99.90
5792;DHT22;2922;53.482;10.006;2023-09-18T22:07:19;17.30;99.90
5792;DHT22;2922;53.482;10.006;2023-09-18T22:09:45;17.30;99.90
5792;DHT22;2922;53.482;10.006;2023-09-18T22:12:17;17.30;99.90
5792;DHT22;2922;53.482;10.006;2023-09-18T22:14:44;17.30;99.90
5792;DHT22;2922;53.482;10.006;2023-09-18T22:17:11;17.30;99.90
5792;DHT22;2922;53.482;10.006;2023-09-18T22:19:36;17.30;99.90
5792;DHT22;2922;53.482;10.006;2023-09-18T22:22:02;17.30;99.90
5792;DHT22;2922;53.482;10.006;2023-09-18T22:24:27;17.30;99.90
5792;DHT22;2922;53.482;10.006;2023-09-18T22:26:53;17.30;99.90
5792;DHT22;2922;53.482;10.006;2023-09-18T22:29:18;17.20;99.90
5792;DHT22;2922;53.482;10.006;2023-09-18T22:31:44;17.20;99.90
5792;DHT22;2922;53.482;10.006;2023-09-18T22:34:10;17.20;99.90
5792;DHT22;2922;53.482;10.006;2023-09-18T22:36:37;17.20;99.90
5792;DHT22;2922;53.482;10.006;2023-09-18T22:55:52;17.30;99.90
5792;DHT22;2922;53.482;10.006;2023-09-18T22:58:17;17.30;99.90
5792;DHT22;2922;53.482;10.006;2023-09-18T23:00:44;17.30;99.90
5792;DHT22;2922;53.482;10.006;2023-09-18T23:03:12;17.30;99.90
5792;DHT22;2922;53.482;10.006;2023-09-18T23:05:38;17.30;99.90
5792;DHT22;2922;53.482;10.006;2023-09-18T23:08:09;17.30;99.90
5792;DHT22;2922;53.482;10.006;2023-09-18T23:10:35;17.30;99.90
5792;DHT22;2922;53.482;10.006;2023-09-18T23:13:04;17.30;99.90
5792;DHT22;2922;53.482;10.006;2023-09-18T23:15:30;17.30;99.90
5792;DHT22;2922;53.482;10.006;2023-09-18T23:17:59;17.30;99.90
5792;DHT22;2922;53.482;10.006;2023-09-18T23:20:26;17.30;99.90
5792;DHT22;2922;53.482;10.006;2023-09-18T23:22:53;17.20;99.90
5792;DHT22;2922;53.482;10.006;2023-09-18T23:25:22;17.20;99.90
5792;DHT22;2922;53.482;10.006;2023-09-18T23:27:49;17.20;99.90
5792;DHT22;2922;53.482;10.006;2023-09-18T23:30:19;17.20;99.90
5792;DHT22;2922;53.482;10.006;2023-09-18T23:32:52;17.20;99.90
5792;DHT22;2922;53.482;10.006;2023-09-18T23:35:18;17.20;99.90
5792;DHT22;2922;53.482;10.006;2023-09-18T23:37:54;17.10;99.90
5792;DHT22;2922;53.482;10.006;2023-09-18T23:40:20;17.10;99.90
5792;DHT22;2922;53.482;10.006;2023-09-18T23:42:46;17.10;99.90
5792;DHT22;2922;53.482;10.006;2023-09-18T23:45:13;17.10;99.90
5792;DHT22;2922;53.482;10.006;2023-09-18T23:47:43;17.10;99.90
5792;DHT22;2922;53.482;10.006;2023-09-18T23:50:13;17.10;99.90
5792;DHT22;2922;53.482;10.006;2023-09-18T23:52:39;17.10;99.90
5792;DHT22;2922;53.482;10.006;2023-09-18T23:55:07;17.10;99.90
5792;DHT22;2922;53.482;10.006;2023-09-18T23:57:35;17.10;99.90
